Time;durP1;ratioP1;P1;durP2;ratioP2;P2;SDS_P1;SDS_P2;PMS_P1;PMS_P2;Temp;Humidity;BMP_temperature;BMP_pressure;BME280_temperature;BME280_humidity;BME280_pressure;Samples;Min_cycle;Max_cycle;Signal;HPM_P1;HPM_P2
2021/05/15 00:03:38;;;;;;;28.45;17.30;;;;;;;;;;10256054;28;20099;-66
2021/05/15 00:08:34;;;;;;;31.90;20.08;;;;;;;;;;10261864;28;20064;-67
2021/05/15 00:13:29;;;;;;;39.08;19.85;;;;;;;;;;10258728;28;20120;-67
2021/05/15 00:18:24;;;;;;;31.95;19.80;;;;;;;;;;10254598;28;20135;-67
2021/05/15 00:23:19;;;;;;;38.00;19.88;;;;;;;;;;10259789;28;20048;-67
2021/05/15 00:28:15;;;;;;;36.13;19.67;;;;;;;;;;10261570;28;20122;-65
2021/05/15 00:33:10;;;;;;;37.97;19.88;;;;;;;;;;10264988;28;20037;-65
2021/05/15 00:38:05;;;;;;;35.13;18.20;;;;;;;;;;10256654;28;20045;-65
2021/05/15 00:43:00;;;;;;;28.77;17.95;;;;;;;;;;10254615;28;20045;-65
2021/05/15 00:47:56;;;;;;;28.80;18.05;;;;;;;;;;10255941;28;20041;-66
2021/05/15 00:52:52;;;;;;;33.38;19.92;;;;;;;;;;10258921;28;20041;-64
2021/05/15 00:57:47;;;;;;;34.67;18.50;;;;;;;;;;10259400;28;20048;-65
2021/05/15 01:02:42;;;;;;;35.33;19.83;;;;;;;;;;10256774;28;20077;-65
2021/05/15 01:07:38;;;;;;;28.55;17.50;;;;;;;;;;10256506;28;20478;-65
2021/05/15 01:12:33;;;;;;;32.78;17.40;;;;;;;;;;10254319;28;20039;-68
2021/05/15 01:17:28;;;;;;;30.63;17.13;;;;;;;;;;10242404;28;20037;-68
2021/05/15 01:22:24;;;;;;;27.30;16.88;;;;;;;;;;10252537;28;20041;-68
2021/05/15 01:27:19;;;;;;;28.67;18.65;;;;;;;;;;10252546;28;20033;-66
2021/05/15 01:32:14;;;;;;;27.90;16.67;;;;;;;;;;10250472;28;20041;-67
2021/05/15 01:37:09;;;;;;;30.08;18.08;;;;;;;;;;10253329;28;20049;-67
2021/05/15 01:42:04;;;;;;;27.08;16.67;;;;;;;;;;10255655;28;20041;-67
2021/05/15 01:47:00;;;;;;;29.02;19.13;;;;;;;;;;10252180;28;20759;-65
2021/05/15 01:51:55;;;;;;;29.23;17.35;;;;;;;;;;10262052;28;20071;-65
2021/05/15 01:56:50;;;;;;;35.28;18.80;;;;;;;;;;10258417;28;20045;-66
2021/05/15 02:01:45;;;;;;;36.90;19.42;;;;;;;;;;10255988;28;20148;-66
2021/05/15 02:06:40;;;;;;;29.55;16.42;;;;;;;;;;10247749;28;20047;-66
2021/05/15 02:11:38;;;;;;;31.20;18.17;;;;;;;;;;10270451;28;20033;-66
2021/05/15 02:16:33;;;;;;;29.27;16.40;;;;;;;;;;10255641;28;20037;-67
2021/05/15 02:21:29;;;;;;;33.28;17.95;;;;;;;;;;10254338;28;20120;-67
2021/05/15 02:26:24;;;;;;;32.53;18.20;;;;;;;;;;10246413;28;20053;-66
2021/05/15 02:31:19;;;;;;;27.02;17.60;;;;;;;;;;10252244;28;20470;-67
2021/05/15 02:36:14;;;;;;;33.05;18.63;;;;;;;;;;10251570;28;20040;-67
2021/05/15 02:41:10;;;;;;;28.58;16.58;;;;;;;;;;10266308;28;20116;-68
2021/05/15 02:46:05;;;;;;;29.05;18.27;;;;;;;;;;10248628;28;20514;-66
2021/05/15 02:51:00;;;;;;;29.50;17.75;;;;;;;;;;10252763;28;20119;-66
2021/05/15 02:55:55;;;;;;;35.90;19.23;;;;;;;;;;10252114;28;20067;-68
2021/05/15 03:00:50;;;;;;;32.63;17.42;;;;;;;;;;10262470;28;21027;-67
2021/05/15 03:05:46;;;;;;;34.43;17.33;;;;;;;;;;10262527;28;20037;-67
2021/05/15 03:10:41;;;;;;;32.25;17.23;;;;;;;;;;10261660;28;20443;-67
2021/05/15 03:15:36;;;;;;;32.50;19.30;;;;;;;;;;10259415;28;20402;-68
2021/05/15 03:20:31;;;;;;;33.15;19.88;;;;;;;;;;10264808;28;20040;-68
2021/05/15 03:25:27;;;;;;;37.38;18.95;;;;;;;;;;10263696;28;20041;-68
2021/05/15 03:30:22;;;;;;;34.20;20.15;;;;;;;;;;10246035;28;20515;-66
2021/05/15 03:35:19;;;;;;;32.17;19.25;;;;;;;;;;10253940;28;20522;-67
2021/05/15 03:40:14;;;;;;;32.40;19.15;;;;;;;;;;10258265;28;20036;-66
2021/05/15 03:45:10;;;;;;;38.22;18.83;;;;;;;;;;10262285;28;20040;-65
2021/05/15 03:50:05;;;;;;;28.52;16.83;;;;;;;;;;10251997;28;20026;-65
2021/05/15 03:55:01;;;;;;;32.58;20.45;;;;;;;;;;10254748;28;20482;-66
2021/05/15 03:59:57;;;;;;;32.55;18.73;;;;;;;;;;10262167;28;20037;-66
2021/05/15 04:04:53;;;;;;;32.55;18.65;;;;;;;;;;10251478;28;20040;-66
2021/05/15 04:09:48;;;;;;;34.08;19.42;;;;;;;;;;10256660;28;20029;-66
2021/05/15 04:14:46;;;;;;;31.98;21.15;;;;;;;;;;10256940;28;20502;-66
2021/05/15 04:19:41;;;;;;;33.75;18.50;;;;;;;;;;10254651;28;20064;-66
2021/05/15 04:24:37;;;;;;;31.75;17.83;;;;;;;;;;10255330;28;20029;-67
2021/05/15 04:29:32;;;;;;;32.42;18.23;;;;;;;;;;10262375;28;20064;-67
2021/05/15 04:34:28;;;;;;;36.53;19.67;;;;;;;;;;10262209;28;20039;-67
2021/05/15 04:39:24;;;;;;;34.20;19.02;;;;;;;;;;10253029;28;20741;-67
2021/05/15 04:44:20;;;;;;;29.85;18.98;;;;;;;;;;10257609;28;20094;-66
2021/05/15 04:49:15;;;;;;;31.23;18.40;;;;;;;;;;10265010;28;20029;-67
2021/05/15 04:54:11;;;;;;;30.38;17.90;;;;;;;;;;10256614;28;20456;-66
2021/05/15 04:59:06;;;;;;;35.47;20.17;;;;;;;;;;10259256;28;20050;-65
2021/05/15 05:04:03;;;;;;;36.05;19.75;;;;;;;;;;10248880;28;20502;-65
2021/05/15 05:08:58;;;;;;;30.58;16.48;;;;;;;;;;10243910;28;20517;-67
2021/05/15 05:13:53;;;;;;;32.17;19.58;;;;;;;;;;10247214;28;20048;-67
2021/05/15 05:18:49;;;;;;;33.65;18.25;;;;;;;;;;10250971;28;20037;-65
2021/05/15 05:23:44;;;;;;;29.13;17.10;;;;;;;;;;10253486;28;20040;-65
2021/05/15 05:28:41;;;;;;;35.95;21.42;;;;;;;;;;10264552;28;20036;-65
2021/05/15 05:33:37;;;;;;;30.63;18.65;;;;;;;;;;10257566;28;20033;-65
2021/05/15 05:38:33;;;;;;;31.13;17.42;;;;;;;;;;10256064;28;20387;-67
2021/05/15 05:43:28;;;;;;;25.73;15.70;;;;;;;;;;10256148;28;20037;-64
2021/05/15 05:48:23;;;;;;;32.17;17.80;;;;;;;;;;10251331;28;20136;-64
2021/05/15 05:53:19;;;;;;;29.48;16.15;;;;;;;;;;10254912;28;20036;-67
2021/05/15 05:58:14;;;;;;;29.42;15.93;;;;;;;;;;10245492;28;20529;-66
2021/05/15 06:03:09;;;;;;;25.77;14.55;;;;;;;;;;10243833;28;20045;-66
2021/05/15 06:08:08;;;;;;;28.20;14.00;;;;;;;;;;10248250;28;20471;-66
2021/05/15 06:13:06;;;;;;;23.92;14.10;;;;;;;;;;10241892;28;20503;-66
2021/05/15 06:18:02;;;;;;;28.27;15.02;;;;;;;;;;10248100;28;20120;-66
2021/05/15 06:22:57;;;;;;;24.83;13.85;;;;;;;;;;10249063;28;20132;-66
2021/05/15 06:27:53;;;;;;;27.60;15.35;;;;;;;;;;10247195;28;20041;-66
2021/05/15 06:32:48;;;;;;;26.17;15.07;;;;;;;;;;10244685;28;20037;-66
2021/05/15 06:37:43;;;;;;;22.75;14.55;;;;;;;;;;10254176;28;20056;-66
2021/05/15 06:42:39;;;;;;;25.23;14.68;;;;;;;;;;10248949;28;20041;-67
2021/05/15 06:47:34;;;;;;;25.27;14.68;;;;;;;;;;10252044;28;20468;-66
2021/05/15 06:52:29;;;;;;;25.58;14.52;;;;;;;;;;10259065;28;20098;-67
2021/05/15 06:57:25;;;;;;;20.77;13.50;;;;;;;;;;10255010;28;20515;-67
2021/05/15 07:02:20;;;;;;;21.55;14.02;;;;;;;;;;10261519;28;21911;-67
2021/05/15 07:07:15;;;;;;;22.70;12.83;;;;;;;;;;10257004;28;20127;-67
2021/05/15 07:12:11;;;;;;;23.55;12.98;;;;;;;;;;10249335;28;20558;-67
2021/05/15 07:17:06;;;;;;;22.40;14.00;;;;;;;;;;10251763;28;20029;-66
2021/05/15 07:22:01;;;;;;;23.03;13.53;;;;;;;;;;10264921;28;20235;-68
2021/05/15 07:26:57;;;;;;;24.77;15.02;;;;;;;;;;10252782;28;20463;-68
2021/05/15 07:31:52;;;;;;;27.38;17.40;;;;;;;;;;10253037;28;20041;-68
2021/05/15 07:36:47;;;;;;;29.63;15.38;;;;;;;;;;10247812;28;20025;-68
2021/05/15 07:41:43;;;;;;;24.65;15.60;;;;;;;;;;10251531;28;20455;-68
2021/05/15 07:46:38;;;;;;;36.40;24.33;;;;;;;;;;10248728;28;20171;-68
2021/05/15 07:51:33;;;;;;;34.78;23.27;;;;;;;;;;10257544;28;20040;-68
2021/05/15 07:56:28;;;;;;;29.42;19.27;;;;;;;;;;10257910;28;20037;-68
2021/05/15 08:01:24;;;;;;;31.35;20.25;;;;;;;;;;10251552;28;20212;-67
2021/05/15 08:06:19;;;;;;;37.75;21.20;;;;;;;;;;10250324;28;20083;-68
2021/05/15 08:11:17;;;;;;;30.67;22.73;;;;;;;;;;10260711;28;20041;-68
2021/05/15 08:16:13;;;;;;;28.85;19.75;;;;;;;;;;10251730;28;20447;-68
2021/05/15 08:21:08;;;;;;;30.35;21.27;;;;;;;;;;10258472;28;20049;-68
2021/05/15 08:26:04;;;;;;;34.75;23.35;;;;;;;;;;10254805;28;20044;-68
2021/05/15 08:30:59;;;;;;;29.10;21.90;;;;;;;;;;10257124;28;20103;-67
2021/05/15 08:35:54;;;;;;;31.00;21.10;;;;;;;;;;10250255;28;20043;-67
2021/05/15 08:40:50;;;;;;;32.25;21.50;;;;;;;;;;10252154;28;20452;-67
2021/05/15 08:45:48;;;;;;;30.08;23.90;;;;;;;;;;10260690;28;20036;-67
2021/05/15 08:50:44;;;;;;;32.80;23.08;;;;;;;;;;10258789;28;20037;-68
2021/05/15 08:55:39;;;;;;;34.97;24.30;;;;;;;;;;10248944;28;20041;-67
2021/05/15 09:00:38;;;;;;;32.13;23.58;;;;;;;;;;10248933;28;20052;-68
2021/05/15 09:05:35;;;;;;;35.40;23.15;;;;;;;;;;10247210;28;20069;-67
2021/05/15 09:10:32;;;;;;;31.25;24.85;;;;;;;;;;10257134;28;20128;-68
2021/05/15 09:15:34;;;;;;;32.80;23.58;;;;;;;;;;10251817;28;20048;-67
2021/05/15 09:20:33;;;;;;;31.27;24.70;;;;;;;;;;10252007;28;20099;-69
2021/05/15 09:25:32;;;;;;;30.75;21.38;;;;;;;;;;10257024;28;20059;-69
2021/05/15 09:30:30;;;;;;;27.73;19.88;;;;;;;;;;10243232;28;20045;-69
2021/05/15 09:35:27;;;;;;;29.15;20.40;;;;;;;;;;10246432;28;20053;-69
2021/05/15 09:40:25;;;;;;;26.83;19.63;;;;;;;;;;10247431;28;20563;-69
2021/05/15 09:45:38;;;;;;;25.98;18.83;;;;;;;;;;10250046;28;20044;-69
2021/05/15 09:50:39;;;;;;;29.50;17.60;;;;;;;;;;10250619;28;20048;-69
2021/05/15 09:55:35;;;;;;;29.70;18.52;;;;;;;;;;10246926;28;20052;-70
2021/05/15 10:00:58;;;;;;;23.88;16.85;;;;;;;;;;10235125;28;20627;-70
2021/05/15 10:05:57;;;;;;;26.88;18.05;;;;;;;;;;10243124;28;21791;-70
2021/05/15 10:10:54;;;;;;;27.10;18.25;;;;;;;;;;10242293;28;20103;-69
2021/05/15 10:15:50;;;;;;;23.67;16.40;;;;;;;;;;10260269;28;20126;-70
2021/05/15 10:20:47;;;;;;;23.17;16.58;;;;;;;;;;10266325;28;20099;-70
2021/05/15 10:25:45;;;;;;;23.48;15.52;;;;;;;;;;10267417;28;20045;-68
2021/05/15 10:30:41;;;;;;;22.40;13.82;;;;;;;;;;10255645;28;20103;-68
2021/05/15 10:35:42;;;;;;;19.88;13.43;;;;;;;;;;10251904;28;20045;-67
2021/05/15 10:40:42;;;;;;;23.50;16.27;;;;;;;;;;10247319;28;20444;-67
2021/05/15 10:45:39;;;;;;;26.02;15.75;;;;;;;;;;10251590;28;20045;-68
2021/05/15 10:50:47;;;;;;;21.85;13.85;;;;;;;;;;10248435;28;20514;-68
2021/05/15 10:55:43;;;;;;;24.65;13.57;;;;;;;;;;10253999;28;20549;-68
2021/05/15 11:00:41;;;;;;;23.42;13.48;;;;;;;;;;10244218;28;20048;-68
2021/05/15 11:05:44;;;;;;;22.70;12.35;;;;;;;;;;10247063;28;20045;-68
2021/05/15 11:10:40;;;;;;;22.30;12.00;;;;;;;;;;10250405;28;20426;-68
2021/05/15 11:15:37;;;;;;;21.48;13.15;;;;;;;;;;10249253;28;20045;-67
2021/05/15 11:20:46;;;;;;;23.77;12.25;;;;;;;;;;10259359;28;20053;-68
2021/05/15 11:25:52;;;;;;;20.63;12.50;;;;;;;;;;10254479;28;20107;-68
2021/05/15 11:30:49;;;;;;;20.05;12.50;;;;;;;;;;10261941;28;20052;-68
2021/05/15 11:35:46;;;;;;;23.52;12.02;;;;;;;;;;10252952;28;20053;-68
2021/05/15 11:40:46;;;;;;;18.70;11.10;;;;;;;;;;10252022;28;20057;-68
2021/05/15 11:45:43;;;;;;;19.20;12.18;;;;;;;;;;10248357;28;20393;-69
2021/05/15 11:50:39;;;;;;;21.33;11.40;;;;;;;;;;10254541;28;20107;-69
2021/05/15 11:55:35;;;;;;;17.13;10.20;;;;;;;;;;10248885;28;20576;-67
2021/05/15 12:00:32;;;;;;;19.13;12.00;;;;;;;;;;10253386;28;20045;-66
2021/05/15 12:05:29;;;;;;;21.85;9.75;;;;;;;;;;10261412;28;20077;-66
2021/05/15 12:10:25;;;;;;;17.30;10.50;;;;;;;;;;10247546;28;20085;-70
2021/05/15 12:15:22;;;;;;;19.70;10.35;;;;;;;;;;10262108;28;20049;-66
2021/05/15 12:20:37;;;;;;;16.20;10.63;;;;;;;;;;10243632;28;20081;-66
2021/05/15 12:25:34;;;;;;;18.90;10.95;;;;;;;;;;10246059;28;20037;-67
2021/05/15 12:30:35;;;;;;;17.10;10.98;;;;;;;;;;10242495;28;20053;-66
2021/05/15 12:35:33;;;;;;;16.25;9.48;;;;;;;;;;10254053;28;20045;-68
2021/05/15 12:40:30;;;;;;;14.13;9.82;;;;;;;;;;10257531;28;20076;-66
2021/05/15 12:45:26;;;;;;;15.82;10.63;;;;;;;;;;10252976;28;20134;-67
2021/05/15 12:50:27;;;;;;;17.30;11.48;;;;;;;;;;10257081;28;20099;-67
2021/05/15 12:55:24;;;;;;;18.38;11.18;;;;;;;;;;10256320;28;20491;-67
2021/05/15 13:00:21;;;;;;;18.42;10.25;;;;;;;;;;10253856;28;20533;-67
2021/05/15 13:05:17;;;;;;;19.23;11.35;;;;;;;;;;10243091;28;20468;-67
2021/05/15 13:10:14;;;;;;;18.90;11.43;;;;;;;;;;10247863;28;20044;-67
2021/05/15 13:15:10;;;;;;;21.60;12.77;;;;;;;;;;10237618;28;20041;-66
2021/05/15 13:20:07;;;;;;;20.98;12.38;;;;;;;;;;10251654;28;20546;-66
2021/05/15 13:25:04;;;;;;;21.67;13.32;;;;;;;;;;10247987;28;20136;-66
2021/05/15 13:30:00;;;;;;;20.15;12.73;;;;;;;;;;10249320;28;20099;-69
2021/05/15 13:34:56;;;;;;;22.48;13.10;;;;;;;;;;10243455;28;20147;-66
2021/05/15 13:39:53;;;;;;;20.27;12.40;;;;;;;;;;10259475;28;20096;-66
2021/05/15 13:44:49;;;;;;;21.88;15.30;;;;;;;;;;10250778;28;20052;-65
2021/05/15 13:49:46;;;;;;;19.05;12.15;;;;;;;;;;10250225;28;20071;-67
2021/05/15 13:54:43;;;;;;;11.75;4.60;;;;;;;;;;10242239;28;20080;-72
2021/05/15 13:59:39;;;;;;;9.25;3.60;;;;;;;;;;10247595;28;20147;-69
2021/05/15 14:04:35;;;;;;;7.72;3.58;;;;;;;;;;10250686;28;20099;-68
2021/05/15 14:09:32;;;;;;;11.73;4.55;;;;;;;;;;10247118;28;20045;-68
2021/05/15 14:14:28;;;;;;;7.28;3.67;;;;;;;;;;10240397;28;20131;-68
2021/05/15 14:19:24;;;;;;;6.38;3.10;;;;;;;;;;10242409;28;20099;-67
2021/05/15 14:24:21;;;;;;;5.05;2.60;;;;;;;;;;10255070;28;20049;-67
2021/05/15 14:29:17;;;;;;;8.90;3.03;;;;;;;;;;10249007;28;20072;-67
2021/05/15 14:34:14;;;;;;;6.78;2.70;;;;;;;;;;10251517;28;20052;-67
2021/05/15 14:39:10;;;;;;;4.78;2.70;;;;;;;;;;10242066;28;20049;-67
2021/05/15 14:44:07;;;;;;;7.47;2.50;;;;;;;;;;10252066;28;20115;-67
2021/05/15 14:49:04;;;;;;;6.82;3.00;;;;;;;;;;10253803;28;20049;-67
2021/05/15 14:54:01;;;;;;;6.85;2.92;;;;;;;;;;10245562;28;20062;-67
2021/05/15 14:58:58;;;;;;;5.63;2.83;;;;;;;;;;10247000;28;20041;-68
2021/05/15 15:03:55;;;;;;;4.95;2.08;;;;;;;;;;10255974;28;20069;-68
2021/05/15 15:08:51;;;;;;;4.15;1.75;;;;;;;;;;10250142;28;20065;-67
2021/05/15 15:13:48;;;;;;;4.55;2.30;;;;;;;;;;10254617;28;20195;-69
2021/05/15 15:18:44;;;;;;;4.65;2.30;;;;;;;;;;10254044;28;20060;-66
2021/05/15 15:23:40;;;;;;;4.03;2.35;;;;;;;;;;10262881;28;20470;-67
2021/05/15 15:28:37;;;;;;;5.65;2.05;;;;;;;;;;10259223;28;20068;-67
2021/05/15 15:33:33;;;;;;;5.93;1.80;;;;;;;;;;10258416;28;20044;-66
2021/05/15 15:38:30;;;;;;;3.95;1.60;;;;;;;;;;10258176;28;20069;-68
2021/05/15 15:43:26;;;;;;;5.35;2.15;;;;;;;;;;10261363;28;20104;-67
2021/05/15 15:48:25;;;;;;;4.68;2.20;;;;;;;;;;10258867;28;20486;-67
2021/05/15 15:53:22;;;;;;;4.07;1.98;;;;;;;;;;10255698;28;20636;-67
2021/05/15 15:58:22;;;;;;;5.10;2.35;;;;;;;;;;10251435;28;20746;-67
2021/05/15 16:03:19;;;;;;;5.95;2.10;;;;;;;;;;10242579;28;20040;-67
2021/05/15 16:08:16;;;;;;;4.70;2.42;;;;;;;;;;10251507;28;20495;-67
2021/05/15 16:13:12;;;;;;;4.78;2.00;;;;;;;;;;10245626;28;20055;-69
2021/05/15 16:18:09;;;;;;;4.22;2.05;;;;;;;;;;10251506;28;20453;-66
2021/05/15 16:23:05;;;;;;;6.07;2.28;;;;;;;;;;10251430;28;20065;-67
2021/05/15 16:28:02;;;;;;;4.03;1.92;;;;;;;;;;10262813;28;20049;-66
2021/05/15 16:32:58;;;;;;;4.07;1.42;;;;;;;;;;10257544;28;20068;-65
2021/05/15 16:37:54;;;;;;;2.75;1.40;;;;;;;;;;10248155;28;20036;-66
2021/05/15 16:42:51;;;;;;;5.97;2.50;;;;;;;;;;10254429;28;20461;-67
2021/05/15 16:47:52;;;;;;;3.10;1.15;;;;;;;;;;10250698;28;20041;-67
2021/05/15 16:52:48;;;;;;;3.10;1.50;;;;;;;;;;10247567;28;20041;-67
2021/05/15 16:57:45;;;;;;;3.30;1.50;;;;;;;;;;10251483;28;20079;-67
2021/05/15 17:02:41;;;;;;;4.55;1.77;;;;;;;;;;10251418;28;21542;-66
2021/05/15 17:07:38;;;;;;;3.78;1.58;;;;;;;;;;10252013;28;20123;-66
2021/05/15 17:12:35;;;;;;;5.75;1.42;;;;;;;;;;10252715;28;20049;-66
2021/05/15 17:17:32;;;;;;;3.03;1.30;;;;;;;;;;10254507;28;20068;-67
2021/05/15 17:22:28;;;;;;;4.30;1.33;;;;;;;;;;10252132;28;20468;-67
2021/05/15 17:27:25;;;;;;;3.55;1.35;;;;;;;;;;10256560;28;20080;-67
2021/05/15 17:32:21;;;;;;;7.30;1.70;;;;;;;;;;10245623;28;20050;-67
2021/05/15 17:37:17;;;;;;;4.82;1.40;;;;;;;;;;10239671;28;20053;-67
2021/05/15 17:42:14;;;;;;;2.83;1.15;;;;;;;;;;10246777;28;20144;-67
2021/05/15 17:47:11;;;;;;;2.17;1.02;;;;;;;;;;10247081;28;20045;-67
2021/05/15 17:52:07;;;;;;;2.45;1.10;;;;;;;;;;10243309;28;20122;-67
2021/05/15 17:57:03;;;;;;;3.35;1.10;;;;;;;;;;10243945;28;20106;-67
2021/05/15 18:02:00;;;;;;;2.53;1.20;;;;;;;;;;10247462;28;20569;-68
2021/05/15 18:06:56;;;;;;;2.65;1.27;;;;;;;;;;10246092;28;20076;-67
2021/05/15 18:11:53;;;;;;;4.70;1.30;;;;;;;;;;10242294;28;20503;-66
2021/05/15 18:16:50;;;;;;;3.25;1.45;;;;;;;;;;10244627;28;20041;-68
2021/05/15 18:21:46;;;;;;;2.65;1.20;;;;;;;;;;10240401;28;20474;-66
2021/05/15 18:26:43;;;;;;;3.78;1.40;;;;;;;;;;10245203;28;20045;-67
2021/05/15 18:31:40;;;;;;;4.13;1.67;;;;;;;;;;10239984;28;20044;-67
2021/05/15 18:36:36;;;;;;;3.75;1.42;;;;;;;;;;10254277;28;20077;-67
2021/05/15 18:41:33;;;;;;;3.72;1.40;;;;;;;;;;10257843;28;20494;-67
2021/05/15 18:46:30;;;;;;;3.65;1.58;;;;;;;;;;10257714;28;20076;-67
2021/05/15 18:51:33;;;;;;;5.20;1.85;;;;;;;;;;10261277;28;20054;-67
2021/05/15 18:56:29;;;;;;;3.72;1.55;;;;;;;;;;10256870;28;20049;-67
2021/05/15 19:01:27;;;;;;;5.35;1.55;;;;;;;;;;10259096;28;20136;-67
2021/05/15 19:06:24;;;;;;;4.63;1.85;;;;;;;;;;10261965;28;20079;-66
2021/05/15 19:11:21;;;;;;;4.57;1.98;;;;;;;;;;10255872;28;20161;-66
2021/05/15 19:16:17;;;;;;;4.35;2.40;;;;;;;;;;10254042;28;20488;-66
2021/05/15 19:21:14;;;;;;;5.43;2.17;;;;;;;;;;10263870;28;20124;-66
2021/05/15 19:26:10;;;;;;;5.55;2.20;;;;;;;;;;10265077;28;20043;-66
2021/05/15 19:31:06;;;;;;;4.85;2.50;;;;;;;;;;10258778;28;20049;-66
2021/05/15 19:36:07;;;;;;;5.13;2.50;;;;;;;;;;10250756;28;20055;-66
2021/05/15 19:41:03;;;;;;;5.13;2.75;;;;;;;;;;10251059;28;20119;-69
2021/05/15 19:46:00;;;;;;;6.88;3.20;;;;;;;;;;10253033;28;20483;-67
2021/05/15 19:50:58;;;;;;;6.30;3.88;;;;;;;;;;10251418;28;20534;-66
2021/05/15 19:55:54;;;;;;;5.38;3.40;;;;;;;;;;10246498;28;20541;-67
2021/05/15 20:00:51;;;;;;;5.63;3.50;;;;;;;;;;10254697;28;20111;-67
2021/05/15 20:05:47;;;;;;;6.32;3.83;;;;;;;;;;10243632;28;20054;-66
2021/05/15 20:10:45;;;;;;;6.95;4.82;;;;;;;;;;10254623;28;20499;-67
2021/05/15 20:15:41;;;;;;;10.00;5.65;;;;;;;;;;10244463;28;20045;-66
2021/05/15 20:20:38;;;;;;;9.15;5.05;;;;;;;;;;10252210;28;20411;-67
2021/05/15 20:25:35;;;;;;;8.07;4.40;;;;;;;;;;10248954;28;20045;-66
2021/05/15 20:30:32;;;;;;;7.15;4.32;;;;;;;;;;10263154;28;20048;-67
2021/05/15 20:35:28;;;;;;;6.38;4.15;;;;;;;;;;10253926;28;20049;-67
2021/05/15 20:40:25;;;;;;;7.53;4.53;;;;;;;;;;10259865;28;20056;-67
2021/05/15 20:45:22;;;;;;;6.22;4.72;;;;;;;;;;10262649;28;20479;-67
2021/05/15 20:50:19;;;;;;;7.13;4.85;;;;;;;;;;10245881;28;20096;-66
2021/05/15 20:55:15;;;;;;;8.40;5.10;;;;;;;;;;10246967;28;20510;-67
2021/05/15 21:00:13;;;;;;;7.07;5.20;;;;;;;;;;10270451;28;20487;-67
2021/05/15 21:05:10;;;;;;;6.47;4.53;;;;;;;;;;10252351;28;20499;-67
2021/05/15 21:10:08;;;;;;;6.65;4.28;;;;;;;;;;10246020;28;20483;-68
2021/05/15 21:15:05;;;;;;;8.85;4.95;;;;;;;;;;10241493;28;20065;-67
2021/05/15 21:20:03;;;;;;;7.38;4.53;;;;;;;;;;10250096;28;20075;-67
2021/05/15 21:25:00;;;;;;;7.32;4.25;;;;;;;;;;10260183;28;20053;-67
2021/05/15 21:29:56;;;;;;;5.78;3.95;;;;;;;;;;10248263;28;20052;-67
2021/05/15 21:34:52;;;;;;;7.88;4.78;;;;;;;;;;10251324;28;20041;-67
2021/05/15 21:39:49;;;;;;;6.72;4.28;;;;;;;;;;10251383;28;20671;-66
2021/05/15 21:44:46;;;;;;;8.35;4.00;;;;;;;;;;10239635;28;21502;-66
2021/05/15 21:49:42;;;;;;;7.28;4.25;;;;;;;;;;10243906;28;20079;-67
2021/05/15 21:54:38;;;;;;;7.80;4.00;;;;;;;;;;10244035;28;20045;-66
2021/05/15 21:59:35;;;;;;;6.78;4.65;;;;;;;;;;10246977;28;20115;-68
2021/05/15 22:04:31;;;;;;;7.15;4.25;;;;;;;;;;10242194;28;20549;-67
2021/05/15 22:09:27;;;;;;;5.47;3.58;;;;;;;;;;10254943;28;20072;-68
2021/05/15 22:14:24;;;;;;;6.00;3.78;;;;;;;;;;10273980;28;20116;-68
2021/05/15 22:19:20;;;;;;;6.28;3.90;;;;;;;;;;10261759;28;20053;-68
2021/05/15 22:24:17;;;;;;;8.10;4.25;;;;;;;;;;10265162;28;20048;-64
2021/05/15 22:29:13;;;;;;;5.72;3.92;;;;;;;;;;10257327;28;20091;-67
2021/05/15 22:34:09;;;;;;;7.05;5.10;;;;;;;;;;10261074;28;20099;-67
2021/05/15 22:39:06;;;;;;;5.60;4.63;;;;;;;;;;10254988;28;20496;-67
2021/05/15 22:44:03;;;;;;;6.60;4.55;;;;;;;;;;10261507;28;20513;-67
2021/05/15 22:48:59;;;;;;;8.70;5.55;;;;;;;;;;10254964;28;20041;-67
2021/05/15 22:53:56;;;;;;;5.93;4.47;;;;;;;;;;10245051;28;20038;-67
2021/05/15 22:58:57;;;;;;;6.63;4.57;;;;;;;;;;10260893;28;20534;-67
2021/05/15 23:03:54;;;;;;;6.72;5.18;;;;;;;;;;10266566;28;20127;-68
2021/05/15 23:08:50;;;;;;;6.40;4.68;;;;;;;;;;10258271;28;20090;-67
2021/05/15 23:13:46;;;;;;;6.53;4.50;;;;;;;;;;10262356;28;20087;-66
2021/05/15 23:18:43;;;;;;;7.18;4.60;;;;;;;;;;10270770;28;20041;-67
2021/05/15 23:23:45;;;;;;;8.68;4.72;;;;;;;;;;10254776;28;20048;-67
2021/05/15 23:28:41;;;;;;;7.45;4.85;;;;;;;;;;10256295;28;20509;-68
2021/05/15 23:33:37;;;;;;;6.78;5.05;;;;;;;;;;10259937;28;20068;-68
2021/05/15 23:38:34;;;;;;;7.05;4.57;;;;;;;;;;10257828;28;20496;-68
2021/05/15 23:43:30;;;;;;;6.03;4.90;;;;;;;;;;10254335;28;20090;-68
2021/05/15 23:48:28;;;;;;;7.03;5.28;;;;;;;;;;10260311;28;20041;-67
2021/05/15 23:53:24;;;;;;;7.10;5.40;;;;;;;;;;10260813;28;20108;-67
2021/05/15 23:58:21;;;;;;;6.72;5.28;;;;;;;;;;10247904;28;20053;-68
